This is the latest recevied weather packets stored in our database for station/object YD2CLX-20. If no packets are shown the sender has not sent any weather packets the latest 1 day(s).
| Time | Temp. | Humidity | Pressure | Rain* | Wind** | Luminosity | Snow |
|---|---|---|---|---|---|---|---|
| 1778089536 | 26.67° C | 89% | 1010 hPa | 0 mm | - | - | - |
| 1778088638 | 26.67° C | 89% | 1010 hPa | 0 mm | - | - | - |
| 1778086843 | 27.78° C | 84% | 1010 hPa | 0 mm | - | - | - |
| 1778085937 | 27.78° C | 84% | 1010 hPa | 0 mm | - | - | - |
| 1778083239 | 27.78° C | 84% | 1010 hPa | 0 mm | - | - | - |
| 1778082337 | 27.78° C | 84% | 1010 hPa | 0 mm | - | - | - |
| 1778078738 | 27.78° C | 84% | 1010 hPa | 0 mm | - | - | - |
| 1778076937 | 28.89° C | 79% | 1010 hPa | 0 mm | - | - | - |
| 1778074238 | 28.89° C | 74% | 1010 hPa | 0 mm | - | - | - |
| 1778065239 | 30.56° C | 58% | 1007 hPa | 0 mm | - | - | - |
| 1778062536 | 31.67° C | 55% | 1007 hPa | 0 mm | - | - | - |
| 1778061639 | 31.67° C | 55% | 1007 hPa | 0 mm | - | - | - |
| 1778060736 | 31.67° C | 55% | 1007 hPa | 0 mm | - | - | - |
| 1778059837 | 32.78° C | 52% | 1007 hPa | 0 mm | - | - | - |
| 1778058936 | 32.78° C | 52% | 1006 hPa | 0 mm | - | - | - |
| 1778058038 | 32.78° C | 55% | 1006 hPa | 0 mm | - | - | - |
| 1778056236 | 32.78° C | 52% | 1006 hPa | 0 mm | - | - | - |
| 1778052613 | 33.89° C | 62% | 1006 hPa | 0 mm | - | - | - |
| 1778051713 | 33.89° C | 65% | 1007 hPa | 0 mm | - | - | - |
| 1778040913 | 33.33° C | 72% | 1009 hPa | 0 mm | - | - | - |
| 1778038213 | 31.67° C | 74% | 1010 hPa | 0 mm | - | - | - |
| 1778030114 | 30° C | 86% | 1011 hPa | 0 mm | - | - | - |
| 1778014814 | 28.33° C | 95% | 1009 hPa | 0 mm | - | - | - |
* Rain latest hour (hover to see other rain measurements)
** Current wind speed in m/s (hover to see current wind gust speed)